createdAt,value
2023-04-09T00:02:04.923Z,7.30
2023-04-09T00:04:32.003Z,7.40
2023-04-09T00:06:59.006Z,7.20
2023-04-09T00:09:26.167Z,7.10
2023-04-09T00:11:53.147Z,7.00
2023-04-09T00:14:20.141Z,7.00
2023-04-09T00:16:47.066Z,7.00
2023-04-09T00:19:14.112Z,7.10
2023-04-09T00:21:41.196Z,7.10
2023-04-09T00:24:08.453Z,7.10
2023-04-09T00:26:35.795Z,7.10
2023-04-09T00:29:02.940Z,7.20
2023-04-09T00:31:30.161Z,7.20
2023-04-09T00:33:57.213Z,7.20
2023-04-09T00:36:26.594Z,7.20
2023-04-09T00:38:54.279Z,7.30
2023-04-09T00:41:21.463Z,7.30
2023-04-09T00:43:48.391Z,7.30
2023-04-09T00:46:16.343Z,7.30
2023-04-09T00:48:43.558Z,7.30
2023-04-09T00:51:10.484Z,7.20
2023-04-09T00:53:37.506Z,7.20
2023-04-09T00:56:05.283Z,7.20
2023-04-09T00:58:32.298Z,7.10
2023-04-09T01:00:59.337Z,7.00
2023-04-09T01:03:26.520Z,7.10
2023-04-09T01:06:42.416Z,7.10
2023-04-09T01:09:50.981Z,7.10
2023-04-09T01:12:51.398Z,7.10
2023-04-09T01:15:26.982Z,7.10
2023-04-09T01:18:13.909Z,7.10
2023-04-09T01:20:53.858Z,7.20
2023-04-09T01:23:35.988Z,7.20
2023-04-09T01:26:19.514Z,7.20
2023-04-09T01:28:56.423Z,7.10
2023-04-09T01:31:36.953Z,7.10
2023-04-09T01:34:05.510Z,7.10
2023-04-09T01:36:33.560Z,7.10
2023-04-09T01:39:02.403Z,7.20
2023-04-09T01:41:32.916Z,7.10
2023-04-09T01:44:02.482Z,7.00
2023-04-09T01:46:31.235Z,7.00
2023-04-09T01:48:58.795Z,7.00
2023-04-09T01:51:27.494Z,7.00
2023-04-09T01:53:54.465Z,7.00
2023-04-09T01:56:21.597Z,6.90
2023-04-09T01:58:48.532Z,6.90
2023-04-09T02:01:32.177Z,6.90
2023-04-09T02:04:04.638Z,7.00
2023-04-09T02:06:50.593Z,7.00
2023-04-09T02:09:20.615Z,7.00
2023-04-09T02:11:50.336Z,7.00
2023-04-09T02:14:20.572Z,7.10
2023-04-09T02:16:48.605Z,7.10
2023-04-09T02:19:15.732Z,7.10
2023-04-09T02:21:42.756Z,7.10
2023-04-09T02:24:09.792Z,7.10
2023-04-09T02:26:36.742Z,7.10
2023-04-09T02:29:03.866Z,7.10
2023-04-09T02:31:31.121Z,7.10
2023-04-09T02:33:58.198Z,7.10
2023-04-09T02:36:25.942Z,7.10
2023-04-09T02:38:53.055Z,7.10
2023-04-09T02:41:21.011Z,7.00
2023-04-09T02:43:48.053Z,7.00
2023-04-09T02:46:14.974Z,7.10
2023-04-09T02:48:41.986Z,6.90
2023-04-09T02:51:08.937Z,6.80
2023-04-09T02:53:37.651Z,6.80
2023-04-09T02:56:04.967Z,6.80
2023-04-09T02:58:32.009Z,6.80
2023-04-09T03:00:58.970Z,6.80
2023-04-09T03:03:26.351Z,6.80
2023-04-09T03:05:53.366Z,6.80
2023-04-09T03:08:20.530Z,6.80
2023-04-09T03:10:47.549Z,6.80
2023-04-09T03:13:14.528Z,6.90
2023-04-09T03:15:41.701Z,6.80
2023-04-09T03:18:08.877Z,6.70
2023-04-09T03:20:39.492Z,6.60
2023-04-09T03:23:08.548Z,6.50
2023-04-09T03:25:40.670Z,6.50
2023-04-09T03:28:12.552Z,6.40
2023-04-09T03:30:43.445Z,6.30
2023-04-09T03:33:10.446Z,6.30
2023-04-09T03:35:47.925Z,6.30
2023-04-09T03:38:16.255Z,6.40
2023-04-09T03:40:43.330Z,6.40
2023-04-09T03:43:10.518Z,6.40
2023-04-09T03:45:39.885Z,6.50
2023-04-09T03:48:20.377Z,6.50
2023-04-09T03:50:47.519Z,6.60
2023-04-09T03:53:19.302Z,6.60
2023-04-09T03:55:46.437Z,6.60
2023-04-09T03:58:20.572Z,6.70
2023-04-09T04:00:48.736Z,6.70
2023-04-09T04:03:32.161Z,6.80
2023-04-09T04:06:09.476Z,6.80
2023-04-09T04:08:59.273Z,6.80
2023-04-09T04:11:35.832Z,6.70
2023-04-09T04:14:02.951Z,6.80
2023-04-09T04:16:30.024Z,6.80
2023-04-09T04:18:57.386Z,6.80
2023-04-09T04:21:24.854Z,6.70
2023-04-09T04:23:58.890Z,6.60
2023-04-09T04:26:28.577Z,6.50
2023-04-09T04:28:56.031Z,6.40
2023-04-09T04:31:43.305Z,6.30
2023-04-09T04:34:11.153Z,6.40
2023-04-09T04:36:39.010Z,6.30
2023-04-09T04:39:07.436Z,6.40
2023-04-09T04:41:48.573Z,6.40
2023-04-09T04:44:20.949Z,6.50
2023-04-09T04:46:51.329Z,6.20
2023-04-09T04:49:18.366Z,6.30
2023-04-09T04:51:47.777Z,6.30
2023-04-09T04:54:16.398Z,6.30
2023-04-09T04:56:51.132Z,6.30
2023-04-09T04:59:31.625Z,6.20
2023-04-09T05:02:02.730Z,6.30
2023-04-09T05:04:34.527Z,6.40
2023-04-09T05:07:02.201Z,6.40
2023-04-09T05:09:29.314Z,6.50
2023-04-09T05:12:01.297Z,6.60
2023-04-09T05:14:28.656Z,6.70
2023-04-09T05:16:55.750Z,6.80
2023-04-09T05:19:26.514Z,6.90
2023-04-09T05:22:00.490Z,7.00
2023-04-09T05:24:27.437Z,7.10
2023-04-09T05:26:55.042Z,7.20
2023-04-09T05:29:22.566Z,7.20
2023-04-09T05:31:49.554Z,7.50
2023-04-09T05:34:28.102Z,8.40
2023-04-09T05:36:56.743Z,10.20
2023-04-09T05:39:25.335Z,11.90
2023-04-09T05:41:52.932Z,13.30
2023-04-09T05:44:19.933Z,14.50
2023-04-09T05:46:47.966Z,15.60
2023-04-09T05:49:19.063Z,16.50
2023-04-09T05:51:50.773Z,16.50
2023-04-09T05:54:23.913Z,14.00
2023-04-09T05:56:52.455Z,13.90
2023-04-09T05:59:19.983Z,13.70
2023-04-09T06:01:47.054Z,13.20
2023-04-09T06:04:14.300Z,13.50
2023-04-09T06:06:41.471Z,13.10
2023-04-09T06:09:08.465Z,13.80
2023-04-09T06:11:38.443Z,14.50
2023-04-09T06:14:05.496Z,14.30
2023-04-09T06:16:33.589Z,14.50
2023-04-09T06:19:00.706Z,14.70
2023-04-09T06:21:27.940Z,14.20
2023-04-09T06:23:55.100Z,14.80
2023-04-09T06:26:22.146Z,15.20
2023-04-09T06:28:49.063Z,14.90
2023-04-09T06:31:16.385Z,15.60
2023-04-09T06:33:43.335Z,14.40
2023-04-09T06:36:10.933Z,13.20
2023-04-09T06:38:37.969Z,13.80
2023-04-09T06:41:08.355Z,13.90
2023-04-09T06:43:36.930Z,14.80
2023-04-09T06:46:03.888Z,15.30
2023-04-09T06:48:31.387Z,14.90
2023-04-09T06:50:58.392Z,15.30
2023-04-09T06:53:25.403Z,14.50
2023-04-09T06:55:52.744Z,15.30
2023-04-09T06:58:21.033Z,14.60
2023-04-09T07:00:47.982Z,14.30
2023-04-09T09:54:26.273Z,12.30
2023-04-09T09:56:58.393Z,12.50
2023-04-09T09:59:32.316Z,12.40
2023-04-09T10:09:53.255Z,13.30
2023-04-09T10:12:23.885Z,13.40
2023-04-09T10:14:55.791Z,13.70
2023-04-09T10:25:07.240Z,14.00
2023-04-09T10:32:36.139Z,14.50
2023-04-09T10:45:14.015Z,14.60
2023-04-09T10:50:19.878Z,16.20
2023-04-09T12:03:19.657Z,14.40
2023-04-09T12:05:50.922Z,14.60
2023-04-09T12:08:24.979Z,14.30
2023-04-09T12:10:53.887Z,14.10
2023-04-09T12:13:21.233Z,14.20
2023-04-09T12:15:50.074Z,14.00
2023-04-09T12:18:17.169Z,15.00
2023-04-09T12:20:47.488Z,14.50
2023-04-09T12:23:14.690Z,14.70
2023-04-09T12:25:46.635Z,14.60
2023-04-09T12:28:16.672Z,14.80
2023-04-09T12:30:44.440Z,14.80
2023-04-09T12:33:11.678Z,14.90
2023-04-09T12:35:39.018Z,14.40
2023-04-09T12:38:06.383Z,14.20
2023-04-09T12:40:33.933Z,13.90
2023-04-09T12:43:01.456Z,13.80
2023-04-09T12:45:29.680Z,13.50
2023-04-09T12:47:56.978Z,13.30
2023-04-09T12:50:24.343Z,13.50
2023-04-09T12:52:51.517Z,13.40
2023-04-09T12:55:18.589Z,13.40
2023-04-09T12:57:49.307Z,13.50
2023-04-09T13:00:16.469Z,13.70
2023-04-09T13:02:43.697Z,13.70
2023-04-09T13:05:10.990Z,13.90
2023-04-09T13:07:37.965Z,13.80
2023-04-09T13:10:05.463Z,13.70
2023-04-09T13:12:32.554Z,13.80
2023-04-09T13:14:59.493Z,13.50
2023-04-09T13:17:26.658Z,13.70
2023-04-09T13:19:53.819Z,13.80
2023-04-09T13:22:21.102Z,14.10
2023-04-09T13:24:48.090Z,14.40
2023-04-09T13:27:16.504Z,14.60
2023-04-09T13:29:43.551Z,14.50
2023-04-09T13:32:11.292Z,14.40
2023-04-09T13:34:39.736Z,14.00
2023-04-09T13:37:07.211Z,14.10
2023-04-09T13:39:34.264Z,14.30
2023-04-09T13:42:05.431Z,14.30
2023-04-09T13:44:37.072Z,14.20
2023-04-09T13:47:04.044Z,14.20
2023-04-09T13:49:31.090Z,14.10
2023-04-09T13:51:59.023Z,14.30
2023-04-09T13:54:25.971Z,14.20
2023-04-09T13:56:52.916Z,14.30
2023-04-09T13:59:19.986Z,14.30
2023-04-09T14:01:47.216Z,14.10
2023-04-09T14:04:14.359Z,13.90
2023-04-09T14:06:42.401Z,13.60
2023-04-09T14:09:10.460Z,13.60
2023-04-09T14:11:37.831Z,14.10
2023-04-09T14:14:05.641Z,14.30
2023-04-09T14:16:32.774Z,14.40
2023-04-09T14:18:59.787Z,14.30
2023-04-09T14:21:27.049Z,14.20
2023-04-09T14:23:54.121Z,14.20
2023-04-09T14:26:22.931Z,14.20
2023-04-09T14:28:51.704Z,13.80
2023-04-09T14:31:21.443Z,13.70
2023-04-09T14:33:49.181Z,13.70
2023-04-09T14:36:16.740Z,13.80
2023-04-09T14:38:43.871Z,13.90
2023-04-09T14:41:10.885Z,13.50
2023-04-09T14:43:37.915Z,13.50
2023-04-09T14:46:06.472Z,13.50
2023-04-09T14:48:34.333Z,13.60
2023-04-09T14:51:01.347Z,13.50
2023-04-09T14:53:28.294Z,13.40
2023-04-09T14:55:55.265Z,13.40
2023-04-09T14:58:22.295Z,13.50
2023-04-09T15:00:50.347Z,13.90
2023-04-09T15:03:17.902Z,14.00
2023-04-09T15:05:46.001Z,14.10
2023-04-09T15:08:13.901Z,13.80
2023-04-09T15:10:40.860Z,13.60
2023-04-09T15:13:07.848Z,13.50
2023-04-09T15:15:35.007Z,13.60
2023-04-09T15:18:05.859Z,13.50
2023-04-09T15:20:37.780Z,13.50
2023-04-09T15:23:04.755Z,13.60
2023-04-09T15:25:32.737Z,13.70
2023-04-09T15:27:59.810Z,13.70
2023-04-09T15:30:26.924Z,13.40
2023-04-09T15:32:54.007Z,13.40
2023-04-09T15:35:25.247Z,13.40
2023-04-09T15:37:52.446Z,13.50
2023-04-09T15:40:20.450Z,13.60
2023-04-09T15:42:47.443Z,13.60
2023-04-09T15:45:18.076Z,13.40
2023-04-09T15:47:46.047Z,13.40
2023-04-09T15:50:13.911Z,13.60
2023-04-09T15:52:41.199Z,13.80
2023-04-09T15:55:09.101Z,13.70
2023-04-09T15:57:36.462Z,13.90
2023-04-09T16:00:03.867Z,13.70
2023-04-09T16:02:32.143Z,13.60
2023-04-09T16:04:59.178Z,13.60
2023-04-09T16:07:26.669Z,13.60
2023-04-09T16:09:53.612Z,13.50
2023-04-09T16:12:20.619Z,13.50
2023-04-09T16:14:47.619Z,13.60
2023-04-09T16:17:14.590Z,13.70
2023-04-09T16:19:43.002Z,13.80
2023-04-09T16:22:10.482Z,13.50
2023-04-09T16:24:37.568Z,13.40
2023-04-09T16:27:04.628Z,13.40
2023-04-09T16:29:31.610Z,13.60
2023-04-09T16:31:58.641Z,13.50
2023-04-09T16:34:25.682Z,13.50
2023-04-09T16:36:52.746Z,13.40
2023-04-09T16:39:19.801Z,13.50
2023-04-09T16:41:46.760Z,13.50
2023-04-09T16:44:13.895Z,13.40
2023-04-09T16:46:40.967Z,13.30
2023-04-09T16:49:08.028Z,13.30
2023-04-09T16:51:35.175Z,13.20
2023-04-09T16:54:02.135Z,13.10
2023-04-09T16:56:29.169Z,13.10
2023-04-09T16:58:56.256Z,13.10
2023-04-09T17:01:23.254Z,13.10
2023-04-09T17:03:50.516Z,13.20
2023-04-09T17:06:18.031Z,13.20
2023-04-09T17:08:45.703Z,13.10
2023-04-09T17:11:17.089Z,13.00
2023-04-09T17:13:44.104Z,12.90
2023-04-09T17:16:11.828Z,12.90
2023-04-09T17:18:39.061Z,12.80
2023-04-09T17:21:06.808Z,12.70
2023-04-09T17:23:33.742Z,12.70
2023-04-09T17:26:01.678Z,12.60
2023-04-09T17:28:28.675Z,12.70
2023-04-09T17:30:55.734Z,12.60
2023-04-09T17:33:22.753Z,12.60
2023-04-09T17:35:49.773Z,12.50
2023-04-09T17:38:21.417Z,12.50
2023-04-09T17:40:48.590Z,12.40
2023-04-09T17:43:15.670Z,12.30
2023-04-09T17:45:42.652Z,12.20
2023-04-09T17:48:09.804Z,12.20
2023-04-09T17:50:39.621Z,12.10
2023-04-09T17:53:06.629Z,12.00
2023-04-09T17:55:33.681Z,11.90
2023-04-09T17:58:00.780Z,11.90
2023-04-09T18:00:27.955Z,11.80
2023-04-09T18:02:56.230Z,11.70
2023-04-09T18:05:23.564Z,11.60
2023-04-09T18:07:51.665Z,11.50
2023-04-09T18:10:19.589Z,11.30
2023-04-09T18:12:46.635Z,11.30
2023-04-09T18:15:13.752Z,11.10
2023-04-09T18:17:40.798Z,11.00
2023-04-09T18:20:08.331Z,10.90
2023-04-09T18:22:35.389Z,10.80
2023-04-09T18:25:02.582Z,10.80
2023-04-09T18:27:29.688Z,10.80
2023-04-09T18:29:56.684Z,10.80
2023-04-09T18:32:25.235Z,10.70
2023-04-09T18:34:52.900Z,10.70
2023-04-09T18:37:21.020Z,10.50
2023-04-09T18:39:48.020Z,10.50
2023-04-09T18:42:14.985Z,10.40
2023-04-09T18:44:42.408Z,10.30
2023-04-09T18:47:10.551Z,10.20
2023-04-09T18:49:37.635Z,10.10
2023-04-09T18:52:09.157Z,9.90
2023-04-09T18:54:37.455Z,9.90
2023-04-09T18:57:04.647Z,9.80
2023-04-09T18:59:34.598Z,9.70
2023-04-09T19:02:05.729Z,9.70
2023-04-09T19:04:36.464Z,9.60
2023-04-09T19:07:03.804Z,9.60
2023-04-09T19:09:32.086Z,9.50
2023-04-09T19:11:59.095Z,9.50
2023-04-09T19:14:26.179Z,9.40
2023-04-09T19:16:53.646Z,9.30
2023-04-09T19:19:20.635Z,9.00
2023-04-09T19:21:47.703Z,8.80
2023-04-09T19:24:14.677Z,8.80
2023-04-09T19:26:41.603Z,8.70
2023-04-09T19:29:08.877Z,8.70
2023-04-09T19:31:36.089Z,8.60
2023-04-09T19:34:03.063Z,8.50
2023-04-09T19:36:32.326Z,8.40
2023-04-09T19:38:59.294Z,8.30
2023-04-09T19:41:26.276Z,8.20
2023-04-09T19:43:53.218Z,8.20
2023-04-09T19:46:20.283Z,8.10
2023-04-09T19:48:48.135Z,8.00
2023-04-09T19:51:20.023Z,8.00
2023-04-09T19:53:48.017Z,8.00
2023-04-09T19:56:16.098Z,8.00
2023-04-09T19:58:44.367Z,8.00
2023-04-09T20:01:12.130Z,8.10
2023-04-09T20:03:39.189Z,8.20
2023-04-09T20:06:10.512Z,8.20
2023-04-09T20:08:38.047Z,8.20
2023-04-09T20:11:05.616Z,8.20
2023-04-09T20:13:33.172Z,8.20
2023-04-09T20:16:00.624Z,8.10
2023-04-09T20:18:28.593Z,8.00
2023-04-09T20:20:55.571Z,7.90
2023-04-09T20:30:51.145Z,7.80
2023-04-09T20:33:18.587Z,7.40
2023-04-09T20:35:45.723Z,7.20
2023-04-09T20:38:12.761Z,7.30
2023-04-09T20:40:39.734Z,7.30
2023-04-09T20:43:06.712Z,7.30
2023-04-09T20:45:33.873Z,7.20
2023-04-09T20:48:01.484Z,7.10
2023-04-09T20:50:28.870Z,7.20
2023-04-09T20:52:56.055Z,7.20
2023-04-09T20:55:25.370Z,7.20
2023-04-09T20:57:55.457Z,7.20
2023-04-09T21:00:23.047Z,7.20
2023-04-09T21:02:50.326Z,7.40
2023-04-09T21:05:23.590Z,7.60
2023-04-09T21:07:55.614Z,7.80
2023-04-09T21:10:22.669Z,7.90
2023-04-09T21:12:49.726Z,7.90
2023-04-09T21:15:16.863Z,7.90
2023-04-09T21:17:43.913Z,7.90
2023-04-09T21:20:11.715Z,7.90
2023-04-09T21:22:38.677Z,7.90
2023-04-09T21:25:06.445Z,7.80
2023-04-09T21:27:33.446Z,7.70
2023-04-09T21:30:00.601Z,7.60
2023-04-09T21:32:28.008Z,7.50
2023-04-09T21:34:55.378Z,7.50
2023-04-09T21:37:22.654Z,7.50
2023-04-09T21:39:49.727Z,7.40
2023-04-09T21:42:16.877Z,7.40
2023-04-09T21:44:43.840Z,7.40
2023-04-09T21:47:12.161Z,7.40
2023-04-09T21:49:40.451Z,7.30
2023-04-09T21:52:14.377Z,7.30
2023-04-09T21:54:43.213Z,7.40
2023-04-09T21:57:11.431Z,7.30
2023-04-09T21:59:40.963Z,7.30
2023-04-09T22:02:08.957Z,7.30
2023-04-09T22:04:36.072Z,7.20
2023-04-09T22:07:03.717Z,7.20
2023-04-09T22:09:31.480Z,7.20
2023-04-09T22:11:59.634Z,7.20
2023-04-09T22:14:29.373Z,7.20
2023-04-09T22:16:58.249Z,7.20
2023-04-09T22:19:26.150Z,7.10
2023-04-09T22:21:53.514Z,7.10
2023-04-09T22:24:27.220Z,7.00
2023-04-09T22:26:54.263Z,7.00
2023-04-09T22:29:21.322Z,7.10
2023-04-09T22:31:48.319Z,7.00
2023-04-09T22:34:21.459Z,7.00
2023-04-09T22:36:49.098Z,7.00
2023-04-09T22:39:16.100Z,6.90
2023-04-09T22:41:43.230Z,6.80
2023-04-09T22:44:10.524Z,6.70
2023-04-09T22:46:37.783Z,6.60
2023-04-09T22:49:05.874Z,6.60
2023-04-09T22:51:36.500Z,6.60
2023-04-09T22:54:03.788Z,6.60
2023-04-09T22:56:31.909Z,6.50
2023-04-09T22:58:59.290Z,6.60
2023-04-09T23:01:27.581Z,6.60
2023-04-09T23:03:55.465Z,6.70
2023-04-09T23:06:22.696Z,6.70
2023-04-09T23:08:50.550Z,6.70
2023-04-09T23:11:17.828Z,6.70
2023-04-09T23:13:45.351Z,6.70
2023-04-09T23:16:13.352Z,6.70
2023-04-09T23:18:40.721Z,6.60
2023-04-09T23:21:09.087Z,6.60
2023-04-09T23:23:37.657Z,6.60
2023-04-09T23:26:05.330Z,6.70
2023-04-09T23:28:32.371Z,6.70
2023-04-09T23:30:59.420Z,6.70
2023-04-09T23:33:26.602Z,6.70
2023-04-09T23:35:53.768Z,6.70
2023-04-09T23:38:20.701Z,6.70
2023-04-09T23:40:49.291Z,6.70
2023-04-09T23:43:16.472Z,6.70
2023-04-09T23:45:44.489Z,6.70
2023-04-09T23:48:12.391Z,6.60
2023-04-09T23:50:41.145Z,6.60
2023-04-09T23:53:08.337Z,6.50
2023-04-09T23:55:40.745Z,6.50
2023-04-09T23:58:08.446Z,6.50
